Station Historical Data
Daily Summary for March 11, 2017 Units:  Both    English   Metric
« Previous Day
Next Day »
Daily Weekly Monthly Yearly Custom
  High: Low: Average:
Temperature: 20.8 °F /  -6.2 °C 13.8 °F /  -10.1 °C 16.9 °F /  -8.4 °C
Dew Point: 14.4 °F /  -9.8 °C 5.8 °F /  -14.6 °C 9.7 °F /  -12.4 °C
Humidity: 86% 57% 73%
Wind Speed: 16.0mph /  25.7km/h - 6.5mph /  10.5km/h
Wind Gust: 25.0mph /  40.2km/h - -
Wind- - WNW
Pressure: 30.39 in /  1029 hPa 30.20 in /  1022.6 hPa -
Precipitation: 0.00 in /  0 mm    
Historical Graphs
 
 
Tabular Data for March 11, 2017
Time Temperature Dew Point Pressure Wind Wind Speed Wind Gust Humidity Rainfall Rate (Hourly)
00:04 14.4 °F /  -9.8 °C 8.2 °F /  -13.2 °C 30.21in /  1022.9hPa West 8.0mph /  12.9km/h 17.0mph /  27.4km/h 76% 0.00in /  0mm
00:09 14.2 °F /  -9.9 °C 8.0 °F /  -13.3 °C 30.21in /  1022.9hPa West 8.0mph /  12.9km/h 17.0mph /  27.4km/h 76% 0.00in /  0mm
00:14 14.3 °F /  -9.8 °C 8.1 °F /  -13.3 °C 30.21in /  1022.9hPa West 7.0mph /  11.3km/h 15.0mph /  24.1km/h 76% 0.00in /  0mm
00:19 14.4 °F /  -9.8 °C 7.9 °F /  -13.4 °C 30.21in /  1022.9hPa WNW 8.0mph /  12.9km/h 20.0mph /  32.2km/h 75% 0.00in /  0mm
00:24 14.5 °F /  -9.7 °C 7.7 °F /  -13.5 °C 30.21in /  1022.9hPa West 11.0mph /  17.7km/h 16.0mph /  25.7km/h 74% 0.00in /  0mm
00:29 14.5 °F /  -9.7 °C 8.0 °F /  -13.3 °C 30.22in /  1023.2hPa West 5.0mph /  8km/h 13.0mph /  20.9km/h 75% 0.00in /  0mm
00:34 14.5 °F /  -9.7 °C 7.4 °F /  -13.7 °C 30.21in /  1022.9hPa West 8.0mph /  12.9km/h 18.0mph /  29km/h 73% 0.00in /  0mm
00:39 14.8 °F /  -9.6 °C 7.1 °F /  -13.8 °C 30.21in /  1022.9hPa West 9.0mph /  14.5km/h 18.0mph /  29km/h 71% 0.00in /  0mm
00:44 14.8 °F /  -9.6 °C 7.1 °F /  -13.8 °C 30.21in /  1022.9hPa West 6.0mph /  9.7km/h 16.0mph /  25.7km/h 71% 0.00in /  0mm
00:49 14.8 °F /  -9.6 °C 6.8 °F /  -14 °C 30.21in /  1022.9hPa West 8.0mph /  12.9km/h 17.0mph /  27.4km/h 70% 0.00in /  0mm
00:54 14.8 °F /  -9.6 °C 6.8 °F /  -14 °C 30.21in /  1022.9hPa NW 8.0mph /  12.9km/h 16.0mph /  25.7km/h 70% 0.00in /  0mm
00:59 14.6 °F /  -9.7 °C 7.5 °F /  -13.6 °C 30.21in /  1022.9hPa West 11.0mph /  17.7km/h 19.0mph /  30.6km/h 73% 0.00in /  0mm
01:04 14.6 °F /  -9.7 °C 6.9 °F /  -13.9 °C 30.20in /  1022.6hPa West 10.0mph /  16.1km/h 18.0mph /  29km/h 71% 0.00in /  0mm
01:09 14.6 °F /  -9.7 °C 7.2 °F /  -13.8 °C 30.21in /  1022.9hPa West 10.0mph /  16.1km/h 25.0mph /  40.2km/h 72% 0.00in /  0mm
01:14 14.6 °F /  -9.7 °C 6.6 °F /  -14.1 °C 30.21in /  1022.9hPa West 8.0mph /  12.9km/h 25.0mph /  40.2km/h 70% 0.00in /  0mm
01:19 14.8 °F /  -9.6 °C 6.5 °F /  -14.2 °C 30.21in /  1022.9hPa WNW 4.0mph /  6.4km/h 18.0mph /  29km/h 69% 0.00in /  0mm
01:24 14.9 °F /  -9.5 °C 6.6 °F /  -14.1 °C 30.21in /  1022.9hPa West 8.0mph /  12.9km/h 18.0mph /  29km/h 69% 0.00in /  0mm
01:29 14.8 °F /  -9.6 °C 6.5 °F /  -14.2 °C 30.21in /  1022.9hPa West 12.0mph /  19.3km/h 13.0mph /  20.9km/h 69% 0.00in /  0mm
01:34 14.8 °F /  -9.6 °C 6.1 °F /  -14.4 °C 30.21in /  1022.9hPa WNW 9.0mph /  14.5km/h 18.0mph /  29km/h 68% 0.00in /  0mm
01:39 14.7 °F /  -9.6 °C 6.0 °F /  -14.4 °C 30.21in /  1022.9hPa West 9.0mph /  14.5km/h 18.0mph /  29km/h 68% 0.00in /  0mm
01:44 14.5 °F /  -9.7 °C 6.8 °F /  -14 °C 30.21in /  1022.9hPa West 9.0mph /  14.5km/h 18.0mph /  29km/h 71% 0.00in /  0mm
01:49 14.4 °F /  -9.8 °C 6.7 °F /  -14.1 °C 30.21in /  1022.9hPa West 11.0mph /  17.7km/h 18.0mph /  29km/h 71% 0.00in /  0mm
01:54 14.5 °F /  -9.7 °C 7.1 °F /  -13.8 °C 30.21in /  1022.9hPa West 9.0mph /  14.5km/h 18.0mph /  29km/h 72% 0.00in /  0mm
01:59 14.6 °F /  -9.7 °C 6.9 °F /  -13.9 °C 30.21in /  1022.9hPa West 10.0mph /  16.1km/h 17.0mph /  27.4km/h 71% 0.00in /  0mm
02:04 14.8 °F /  -9.6 °C 6.8 °F /  -14 °C 30.21in /  1022.9hPa West 9.0mph /  14.5km/h 17.0mph /  27.4km/h 70% 0.00in /  0mm
02:09 14.6 °F /  -9.7 °C 6.0 °F /  -14.4 °C 30.21in /  1022.9hPa West 8.0mph /  12.9km/h 19.0mph /  30.6km/h 68% 0.00in /  0mm
02:14 14.5 °F /  -9.7 °C 5.9 °F /  -14.5 °C 30.20in /  1022.6hPa West 12.0mph /  19.3km/h 16.0mph /  25.7km/h 68% 0.00in /  0mm
02:19 14.5 °F /  -9.7 °C 5.9 °F /  -14.5 °C 30.20in /  1022.6hPa West 6.0mph /  9.7km/h 15.0mph /  24.1km/h 68% 0.00in /  0mm
02:24 14.5 °F /  -9.7 °C 5.9 °F /  -14.5 °C 30.21in /  1022.9hPa West 7.0mph /  11.3km/h 17.0mph /  27.4km/h 68% 0.00in /  0mm
02:29 14.5 °F /  -9.7 °C 5.9 °F /  -14.5 °C 30.20in /  1022.6hPa WNW 8.0mph /  12.9km/h 15.0mph /  24.1km/h 68% 0.00in /  0mm
02:34 14.4 °F /  -9.8 °C 5.8 °F /  -14.6 °C 30.20in /  1022.6hPa West 11.0mph /  17.7km/h 14.0mph /  22.5km/h 68% 0.00in /  0mm
02:39 14.5 °F /  -9.7 °C 5.9 °F /  -14.5 °C 30.21in /  1022.9hPa West 4.0mph /  6.4km/h 13.0mph /  20.9km/h 68% 0.00in /  0mm
02:44 14.4 °F /  -9.8 °C 6.1 °F /  -14.4 °C 30.20in /  1022.6hPa West 7.0mph /  11.3km/h 21.0mph /  33.8km/h 69% 0.00in /  0mm
02:49 14.4 °F /  -9.8 °C 6.1 °F /  -14.4 °C 30.20in /  1022.6hPa West 7.0mph /  11.3km/h 21.0mph /  33.8km/h 69% 0.00in /  0mm
02:54 14.5 °F /  -9.7 °C 6.2 °F /  -14.3 °C 30.20in /  1022.6hPa West 6.0mph /  9.7km/h 15.0mph /  24.1km/h 69% 0.00in /  0mm
02:59 14.5 °F /  -9.7 °C 6.2 °F /  -14.3 °C 30.20in /  1022.6hPa West 7.0mph /  11.3km/h 16.0mph /  25.7km/h 69% 0.00in /  0mm
03:04 14.6 °F /  -9.7 °C 6.3 °F /  -14.3 °C 30.21in /  1022.9hPa West 8.0mph /  12.9km/h 18.0mph /  29km/h 69% 0.00in /  0mm
03:09 14.5 °F /  -9.7 °C 6.2 °F /  -14.3 °C 30.21in /  1022.9hPa West 8.0mph /  12.9km/h 19.0mph /  30.6km/h 69% 0.00in /  0mm
03:14 14.5 °F /  -9.7 °C 6.2 °F /  -14.3 °C 30.21in /  1022.9hPa WNW 7.0mph /  11.3km/h 17.0mph /  27.4km/h 69% 0.00in /  0mm
03:19 14.6 °F /  -9.7 °C 6.3 °F /  -14.3 °C 30.21in /  1022.9hPa West 8.0mph /  12.9km/h 17.0mph /  27.4km/h 69% 0.00in /  0mm
03:24 14.6 °F /  -9.7 °C 6.3 °F /  -14.3 °C 30.21in /  1022.9hPa West 8.0mph /  12.9km/h 20.0mph /  32.2km/h 69% 0.00in /  0mm
03:29 14.6 °F /  -9.7 °C 6.6 °F /  -14.1 °C 30.21in /  1022.9hPa WNW 4.0mph /  6.4km/h 15.0mph /  24.1km/h 70% 0.00in /  0mm
03:34 14.5 °F /  -9.7 °C 6.5 °F /  -14.2 °C 30.21in /  1022.9hPa West 8.0mph /  12.9km/h 22.0mph /  35.4km/h 70% 0.00in /  0mm
03:39 14.4 °F /  -9.8 °C 7.0 °F /  -13.9 °C 30.21in /  1022.9hPa West 12.0mph /  19.3km/h 18.0mph /  29km/h 72% 0.00in /  0mm
03:44 14.5 °F /  -9.7 °C 7.1 °F /  -13.8 °C 30.21in /  1022.9hPa WSW 11.0mph /  17.7km/h 14.0mph /  22.5km/h 72% 0.00in /  0mm
03:49 14.5 °F /  -9.7 °C 6.8 °F /  -14 °C 30.21in /  1022.9hPa West 8.0mph /  12.9km/h 14.0mph /  22.5km/h 71% 0.00in /  0mm
03:54 14.5 °F /  -9.7 °C 7.1 °F /  -13.8 °C 30.21in /  1022.9hPa West 9.0mph /  14.5km/h 15.0mph /  24.1km/h 72% 0.00in /  0mm
03:59 14.4 °F /  -9.8 °C 7.3 °F /  -13.7 °C 30.22in /  1023.2hPa West 9.0mph /  14.5km/h 16.0mph /  25.7km/h 73% 0.00in /  0mm
04:04 14.4 °F /  -9.8 °C 7.6 °F /  -13.6 °C 30.22in /  1023.2hPa West 8.0mph /  12.9km/h 16.0mph /  25.7km/h 74% 0.00in /  0mm
04:09 14.5 °F /  -9.7 °C 7.7 °F /  -13.5 °C 30.22in /  1023.2hPa WNW 9.0mph /  14.5km/h 18.0mph /  29km/h 74% 0.00in /  0mm
04:14 14.6 °F /  -9.7 °C 7.8 °F /  -13.4 °C 30.22in /  1023.2hPa West 6.0mph /  9.7km/h 14.0mph /  22.5km/h 74% 0.00in /  0mm
04:19 14.6 °F /  -9.7 °C 7.8 °F /  -13.4 °C 30.22in /  1023.2hPa West 5.0mph /  8km/h 18.0mph /  29km/h 74% 0.00in /  0mm
04:24 14.5 °F /  -9.7 °C 8.3 °F /  -13.2 °C 30.22in /  1023.2hPa WNW 7.0mph /  11.3km/h 18.0mph /  29km/h 76% 0.00in /  0mm
04:29 14.2 °F /  -9.9 °C 8.3 °F /  -13.2 °C 30.23in /  1023.6hPa West 10.0mph /  16.1km/h 14.0mph /  22.5km/h 77% 0.00in /  0mm
04:34 14.1 °F /  -9.9 °C 8.5 °F /  -13.1 °C 30.23in /  1023.6hPa West 9.0mph /  14.5km/h 14.0mph /  22.5km/h 78% 0.00in /  0mm
04:39 14.1 °F /  -9.9 °C 8.8 °F /  -12.9 °C 30.22in /  1023.2hPa WNW 6.0mph /  9.7km/h 11.0mph /  17.7km/h 79% 0.00in /  0mm
04:44 14.1 °F /  -9.9 °C 8.8 °F /  -12.9 °C 30.23in /  1023.6hPa West 6.0mph /  9.7km/h 14.0mph /  22.5km/h 79% 0.00in /  0mm
04:49 14.0 °F /  -10 °C 8.7 °F /  -12.9 °C 30.23in /  1023.6hPa West 9.0mph /  14.5km/h 13.0mph /  20.9km/h 79% 0.00in /  0mm
04:54 14.1 °F /  -9.9 °C 8.8 °F /  -12.9 °C 30.23in /  1023.6hPa WNW 7.0mph /  11.3km/h 14.0mph /  22.5km/h 79% 0.00in /  0mm
04:59 14.1 °F /  -9.9 °C 9.1 °F /  -12.7 °C 30.23in /  1023.6hPa WNW 7.0mph /  11.3km/h 14.0mph /  22.5km/h 80% 0.00in /  0mm
05:04 14.0 °F /  -10 °C 9.0 °F /  -12.8 °C 30.23in /  1023.6hPa WNW 6.0mph /  9.7km/h 12.0mph /  19.3km/h 80% 0.00in /  0mm
05:09 13.9 °F /  -10.1 °C 8.6 °F /  -13 °C 30.23in /  1023.6hPa WNW 6.0mph /  9.7km/h 14.0mph /  22.5km/h 79% 0.00in /  0mm
05:14 13.9 °F /  -10.1 °C 8.3 °F /  -13.2 °C 30.23in /  1023.6hPa WNW 7.0mph /  11.3km/h 14.0mph /  22.5km/h 78% 0.00in /  0mm
05:19 13.8 °F /  -10.1 °C 7.9 °F /  -13.4 °C 30.23in /  1023.6hPa West 6.0mph /  9.7km/h 14.0mph /  22.5km/h 77% 0.00in /  0mm
05:24 13.9 °F /  -10.1 °C 7.7 °F /  -13.5 °C 30.23in /  1023.6hPa West 8.0mph /  12.9km/h 13.0mph /  20.9km/h 76% 0.00in /  0mm
05:29 14.0 °F /  -10 °C 7.8 °F /  -13.4 °C 30.23in /  1023.6hPa West 6.0mph /  9.7km/h 13.0mph /  20.9km/h 76% 0.00in /  0mm
05:34 14.1 °F /  -9.9 °C 7.9 °F /  -13.4 °C 30.24in /  1023.9hPa West 7.0mph /  11.3km/h 13.0mph /  20.9km/h 76% 0.00in /  0mm
05:39 14.1 °F /  -9.9 °C 7.6 °F /  -13.6 °C 30.23in /  1023.6hPa West 9.0mph /  14.5km/h 11.0mph /  17.7km/h 75% 0.00in /  0mm
05:44 14.0 °F /  -10 °C 7.5 °F /  -13.6 °C 30.23in /  1023.6hPa WNW 7.0mph /  11.3km/h 13.0mph /  20.9km/h 75% 0.00in /  0mm
05:49 14.0 °F /  -10 °C 7.5 °F /  -13.6 °C 30.24in /  1023.9hPa West 5.0mph /  8km/h 16.0mph /  25.7km/h 75% 0.00in /  0mm
05:54 13.9 °F /  -10.1 °C 7.7 °F /  -13.5 °C 30.23in /  1023.6hPa West 7.0mph /  11.3km/h 13.0mph /  20.9km/h 76% 0.00in /  0mm
05:59 13.9 °F /  -10.1 °C 7.7 °F /  -13.5 °C 30.23in /  1023.6hPa WNW 7.0mph /  11.3km/h 17.0mph /  27.4km/h 76% 0.00in /  0mm
06:04 13.8 °F /  -10.1 °C 7.6 °F /  -13.6 °C 30.24in /  1023.9hPa WNW 7.0mph /  11.3km/h 17.0mph /  27.4km/h 76% 0.00in /  0mm
06:09 13.9 °F /  -10.1 °C 7.7 °F /  -13.5 °C 30.24in /  1023.9hPa West 7.0mph /  11.3km/h 15.0mph /  24.1km/h 76% 0.00in /  0mm
06:14 13.9 °F /  -10.1 °C 8.0 °F /  -13.3 °C 30.24in /  1023.9hPa West 7.0mph /  11.3km/h 15.0mph /  24.1km/h 77% 0.00in /  0mm
06:19 14.0 °F /  -10 °C 8.4 °F /  -13.1 °C 30.24in /  1023.9hPa West 7.0mph /  11.3km/h 15.0mph /  24.1km/h 78% 0.00in /  0mm
06:24 14.0 °F /  -10 °C 8.4 °F /  -13.1 °C 30.24in /  1023.9hPa West 9.0mph /  14.5km/h 15.0mph /  24.1km/h 78% 0.00in /  0mm
06:29 14.1 °F /  -9.9 °C 8.8 °F /  -12.9 °C 30.24in /  1023.9hPa West 7.0mph /  11.3km/h 12.0mph /  19.3km/h 79% 0.00in /  0mm
06:34 14.2 °F /  -9.9 °C 8.9 °F /  -12.8 °C 30.24in /  1023.9hPa WNW 6.0mph /  9.7km/h 13.0mph /  20.9km/h 79% 0.00in /  0mm
06:39 14.2 °F /  -9.9 °C 8.9 °F /  -12.8 °C 30.24in /  1023.9hPa West 7.0mph /  11.3km/h 14.0mph /  22.5km/h 79% 0.00in /  0mm
06:44 14.4 °F /  -9.8 °C 9.1 °F /  -12.7 °C 30.25in /  1024.3hPa West 7.0mph /  11.3km/h 14.0mph /  22.5km/h 79% 0.00in /  0mm
06:49 14.5 °F /  -9.7 °C 8.9 °F /  -12.8 °C 30.25in /  1024.3hPa NW 5.0mph /  8km/h 13.0mph /  20.9km/h 78% 0.00in /  0mm
06:54 14.5 °F /  -9.7 °C 8.9 °F /  -12.8 °C 30.25in /  1024.3hPa West 5.0mph /  8km/h 11.0mph /  17.7km/h 78% 0.00in /  0mm
06:59 14.6 °F /  -9.7 °C 9.3 °F /  -12.6 °C 30.25in /  1024.3hPa NW 6.0mph /  9.7km/h 10.0mph /  16.1km/h 79% 0.00in /  0mm
07:04 14.6 °F /  -9.7 °C 9.6 °F /  -12.4 °C 30.25in /  1024.3hPa West 8.0mph /  12.9km/h 11.0mph /  17.7km/h 80% 0.00in /  0mm
07:09 14.7 °F /  -9.6 °C 9.9 °F /  -12.3 °C 30.25in /  1024.3hPa WNW 5.0mph /  8km/h 13.0mph /  20.9km/h 81% 0.00in /  0mm
07:14 14.8 °F /  -9.6 °C 10.0 °F /  -12.2 °C 30.25in /  1024.3hPa West 6.0mph /  9.7km/h 13.0mph /  20.9km/h 81% 0.00in /  0mm
07:19 15.0 °F /  -9.4 °C 10.2 °F /  -12.1 °C 30.25in /  1024.3hPa West 6.0mph /  9.7km/h 11.0mph /  17.7km/h 81% 0.00in /  0mm
07:24 15.0 °F /  -9.4 °C 10.5 °F /  -11.9 °C 30.25in /  1024.3hPa WNW 6.0mph /  9.7km/h 11.0mph /  17.7km/h 82% 0.00in /  0mm
07:29 15.0 °F /  -9.4 °C 10.5 °F /  -11.9 °C 30.26in /  1024.6hPa WNW 5.0mph /  8km/h 11.0mph /  17.7km/h 82% 0.00in /  0mm
07:34 14.9 °F /  -9.5 °C 10.4 °F /  -12 °C 30.26in /  1024.6hPa WNW 7.0mph /  11.3km/h 11.0mph /  17.7km/h 82% 0.00in /  0mm
07:39 15.0 °F /  -9.4 °C 10.8 °F /  -11.8 °C 30.26in /  1024.6hPa West 7.0mph /  11.3km/h 12.0mph /  19.3km/h 83% 0.00in /  0mm
07:44 15.0 °F /  -9.4 °C 10.8 °F /  -11.8 °C 30.26in /  1024.6hPa NW 7.0mph /  11.3km/h 10.0mph /  16.1km/h 83% 0.00in /  0mm
07:49 15.2 °F /  -9.3 °C 11.0 °F /  -11.7 °C 30.26in /  1024.6hPa WNW 10.0mph /  16.1km/h 13.0mph /  20.9km/h 83% 0.00in /  0mm
07:54 15.1 °F /  -9.4 °C 10.9 °F /  -11.7 °C 30.27in /  1024.9hPa WNW 11.0mph /  17.7km/h 13.0mph /  20.9km/h 83% 0.00in /  0mm
07:59 15.1 °F /  -9.4 °C 10.9 °F /  -11.7 °C 30.27in /  1024.9hPa West 9.0mph /  14.5km/h 14.0mph /  22.5km/h 83% 0.00in /  0mm
08:04 15.2 °F /  -9.3 °C 10.7 °F /  -11.8 °C 30.27in /  1024.9hPa NW 7.0mph /  11.3km/h 14.0mph /  22.5km/h 82% 0.00in /  0mm
08:09 15.2 °F /  -9.3 °C 10.1 °F /  -12.2 °C 30.27in /  1024.9hPa NW 6.0mph /  9.7km/h 16.0mph /  25.7km/h 80% 0.00in /  0mm
08:14 15.3 °F /  -9.3 °C 10.2 °F /  -12.1 °C 30.27in /  1024.9hPa West 4.0mph /  6.4km/h 14.0mph /  22.5km/h 80% 0.00in /  0mm
08:19 15.5 °F /  -9.2 °C 10.7 °F /  -11.8 °C 30.27in /  1024.9hPa WNW 4.0mph /  6.4km/h 13.0mph /  20.9km/h 81% 0.00in /  0mm
08:24 15.6 °F /  -9.1 °C 10.8 °F /  -11.8 °C 30.27in /  1024.9hPa WNW 7.0mph /  11.3km/h 13.0mph /  20.9km/h 81% 0.00in /  0mm
08:29 15.6 °F /  -9.1 °C 10.5 °F /  -11.9 °C 30.27in /  1024.9hPa WNW 7.0mph /  11.3km/h 13.0mph /  20.9km/h 80% 0.00in /  0mm
08:34 15.9 °F /  -8.9 °C 10.8 °F /  -11.8 °C 30.28in /  1025.3hPa WNW 6.0mph /  9.7km/h 13.0mph /  20.9km/h 80% 0.00in /  0mm
08:39 16.2 °F /  -8.8 °C 11.1 °F /  -11.6 °C 30.28in /  1025.3hPa WNW 5.0mph /  8km/h 12.0mph /  19.3km/h 80% 0.00in /  0mm
08:44 16.1 °F /  -8.8 °C 10.4 °F /  -12 °C 30.28in /  1025.3hPa NW 7.0mph /  11.3km/h 12.0mph /  19.3km/h 78% 0.00in /  0mm
08:49 16.2 °F /  -8.8 °C 10.8 °F /  -11.8 °C 30.28in /  1025.3hPa WNW 6.0mph /  9.7km/h 11.0mph /  17.7km/h 79% 0.00in /  0mm
08:54 16.2 °F /  -8.8 °C 10.5 °F /  -11.9 °C 30.28in /  1025.3hPa NW 6.0mph /  9.7km/h 13.0mph /  20.9km/h 78% 0.00in /  0mm
08:59 16.4 °F /  -8.7 °C 10.2 °F /  -12.1 °C 30.28in /  1025.3hPa WSW 6.0mph /  9.7km/h 12.0mph /  19.3km/h 76% 0.00in /  0mm
09:04 16.4 °F /  -8.7 °C 10.2 °F /  -12.1 °C 30.28in /  1025.3hPa NW 5.0mph /  8km/h 10.0mph /  16.1km/h 76% 0.00in /  0mm
09:09 16.4 °F /  -8.7 °C 10.4 °F /  -12 °C 30.29in /  1025.6hPa NW 7.0mph /  11.3km/h 17.0mph /  27.4km/h 77% 0.00in /  0mm
09:14 16.4 °F /  -8.7 °C 10.7 °F /  -11.8 °C 30.29in /  1025.6hPa NNW 6.0mph /  9.7km/h 9.0mph /  14.5km/h 78% 0.00in /  0mm
09:19 16.2 °F /  -8.8 °C 11.1 °F /  -11.6 °C 30.29in /  1025.6hPa NW 2.0mph /  3.2km/h 7.0mph /  11.3km/h 80% 0.00in /  0mm
09:24 16.3 °F /  -8.7 °C 11.5 °F /  -11.4 °C 30.29in /  1025.6hPa NW 4.0mph /  6.4km/h 13.0mph /  20.9km/h 81% 0.00in /  0mm
09:29 16.1 °F /  -8.8 °C 11.0 °F /  -11.7 °C 30.29in /  1025.6hPa NW 5.0mph /  8km/h 16.0mph /  25.7km/h 80% 0.00in /  0mm
09:34 15.1 °F /  -9.4 °C 10.0 °F /  -12.2 °C 30.29in /  1025.6hPa NW 6.0mph /  9.7km/h 16.0mph /  25.7km/h 80% 0.00in /  0mm
09:39 15.0 °F /  -9.4 °C 10.2 °F /  -12.1 °C 30.30in /  1026hPa NW 6.0mph /  9.7km/h 12.0mph /  19.3km/h 81% 0.00in /  0mm
09:44 15.1 °F /  -9.4 °C 10.6 °F /  -11.9 °C 30.30in /  1026hPa NW 6.0mph /  9.7km/h 12.0mph /  19.3km/h 82% 0.00in /  0mm
09:49 15.4 °F /  -9.2 °C 10.3 °F /  -12.1 °C 30.30in /  1026hPa NW 6.0mph /  9.7km/h 12.0mph /  19.3km/h 80% 0.00in /  0mm
09:54 15.5 °F /  -9.2 °C 10.4 °F /  -12 °C 30.30in /  1026hPa NW 6.0mph /  9.7km/h 14.0mph /  22.5km/h 80% 0.00in /  0mm
09:59 15.8 °F /  -9 °C 10.7 °F /  -11.8 °C 30.30in /  1026hPa NW 5.0mph /  8km/h 14.0mph /  22.5km/h 80% 0.00in /  0mm
10:04 16.3 °F /  -8.7 °C 10.6 °F /  -11.9 °C 30.30in /  1026hPa NW 5.0mph /  8km/h 13.0mph /  20.9km/h 78% 0.00in /  0mm
10:09 16.4 °F /  -8.7 °C 11.0 °F /  -11.7 °C 30.30in /  1026hPa West 6.0mph /  9.7km/h 9.0mph /  14.5km/h 79% 0.00in /  0mm
10:14 16.9 °F /  -8.4 °C 11.2 °F /  -11.6 °C 30.30in /  1026hPa NNW 7.0mph /  11.3km/h 12.0mph /  19.3km/h 78% 0.00in /  0mm
10:19 17.3 °F /  -8.2 °C 11.3 °F /  -11.5 °C 30.30in /  1026hPa NW 3.0mph /  4.8km/h 9.0mph /  14.5km/h 77% 0.00in /  0mm
10:24 17.3 °F /  -8.2 °C 9.8 °F /  -12.3 °C 30.30in /  1026hPa NW 2.0mph /  3.2km/h 11.0mph /  17.7km/h 72% 0.00in /  0mm
10:29 17.5 °F /  -8.1 °C 9.4 °F /  -12.6 °C 30.30in /  1026hPa North 5.0mph /  8km/h 13.0mph /  20.9km/h 70% 0.00in /  0mm
10:34 17.2 °F /  -8.2 °C 8.4 °F /  -13.1 °C 30.30in /  1026hPa WNW 6.0mph /  9.7km/h 13.0mph /  20.9km/h 68% 0.00in /  0mm
10:39 17.9 °F /  -7.8 °C 8.1 °F /  -13.3 °C 30.30in /  1026hPa WNW 7.0mph /  11.3km/h 15.0mph /  24.1km/h 65% 0.00in /  0mm
10:44 17.5 °F /  -8.1 °C 7.7 °F /  -13.5 °C 30.30in /  1026hPa WNW 8.0mph /  12.9km/h 15.0mph /  24.1km/h 65% 0.00in /  0mm
10:49 17.5 °F /  -8.1 °C 7.7 °F /  -13.5 °C 30.30in /  1026hPa WNW 8.0mph /  12.9km/h 14.0mph /  22.5km/h 65% 0.00in /  0mm
10:54 17.7 °F /  -7.9 °C 7.2 °F /  -13.8 °C 30.30in /  1026hPa WNW 7.0mph /  11.3km/h 13.0mph /  20.9km/h 63% 0.00in /  0mm
10:59 17.9 °F /  -7.8 °C 7.4 °F /  -13.7 °C 30.30in /  1026hPa WNW 8.0mph /  12.9km/h 13.0mph /  20.9km/h 63% 0.00in /  0mm
11:04 18.8 °F /  -7.3 °C 9.0 °F /  -12.8 °C 30.30in /  1026hPa WNW 6.0mph /  9.7km/h 13.0mph /  20.9km/h 65% 0.00in /  0mm
11:09 19.2 °F /  -7.1 °C 8.7 °F /  -12.9 °C 30.30in /  1026hPa WNW 5.0mph /  8km/h 11.0mph /  17.7km/h 63% 0.00in /  0mm
11:14 18.5 °F /  -7.5 °C 7.6 °F /  -13.6 °C 30.30in /  1026hPa WNW 6.0mph /  9.7km/h 12.0mph /  19.3km/h 62% 0.01in /  0.25mm
11:19 18.5 °F /  -7.5 °C 7.3 °F /  -13.7 °C 30.30in /  1026hPa West 10.0mph /  16.1km/h 13.0mph /  20.9km/h 61% 0.01in /  0.25mm
11:24 18.8 °F /  -7.3 °C 7.9 °F /  -13.4 °C 30.30in /  1026hPa NNW 9.0mph /  14.5km/h 14.0mph /  22.5km/h 62% 0.01in /  0.25mm
11:29 18.2 °F /  -7.7 °C 6.6 °F /  -14.1 °C 30.30in /  1026hPa North 9.0mph /  14.5km/h 16.0mph /  25.7km/h 60% 0.02in /  0.51mm
11:34 18.0 °F /  -7.8 °C 6.4 °F /  -14.2 °C 30.30in /  1026hPa West 9.0mph /  14.5km/h 12.0mph /  19.3km/h 60% 0.02in /  0.51mm
11:39 18.3 °F /  -7.6 °C 6.7 °F /  -14.1 °C 30.30in /  1026hPa NW 6.0mph /  9.7km/h 12.0mph /  19.3km/h 60% 0.02in /  0.51mm
11:44 18.3 °F /  -7.6 °C 6.7 °F /  -14.1 °C 30.30in /  1026hPa NW 6.0mph /  9.7km/h 16.0mph /  25.7km/h 60% 0.02in /  0.51mm
11:49 18.3 °F /  -7.6 °C 7.1 °F /  -13.8 °C 30.30in /  1026hPa NW 6.0mph /  9.7km/h 16.0mph /  25.7km/h 61% 0.02in /  0.51mm
11:54 18.6 °F /  -7.4 °C 8.1 °F /  -13.3 °C 30.30in /  1026hPa NW 5.0mph /  8km/h 11.0mph /  17.7km/h 63% 0.02in /  0.51mm
11:59 18.4 °F /  -7.6 °C 7.5 °F /  -13.6 °C 30.30in /  1026hPa WNW 7.0mph /  11.3km/h 14.0mph /  22.5km/h 62% 0.02in /  0.51mm
12:04 18.5 °F /  -7.5 °C 8.0 °F /  -13.3 °C 30.31in /  1026.3hPa West 7.0mph /  11.3km/h 14.0mph /  22.5km/h 63% 0.02in /  0.51mm
12:09 19.1 °F /  -7.2 °C 8.6 °F /  -13 °C 30.31in /  1026.3hPa WNW 6.0mph /  9.7km/h 14.0mph /  22.5km/h 63% 0.02in /  0.51mm
12:14 18.9 °F /  -7.3 °C 8.4 °F /  -13.1 °C 30.31in /  1026.3hPa WNW 6.0mph /  9.7km/h 13.0mph /  20.9km/h 63% 0.01in /  0.25mm
12:19 19.1 °F /  -7.2 °C 8.9 °F /  -12.8 °C 30.31in /  1026.3hPa WNW 7.0mph /  11.3km/h 13.0mph /  20.9km/h 64% 0.01in /  0.25mm
12:24 19.0 °F /  -7.2 °C 8.8 °F /  -12.9 °C 30.31in /  1026.3hPa NW 6.0mph /  9.7km/h 13.0mph /  20.9km/h 64% 0.01in /  0.25mm
12:29 19.2 °F /  -7.1 °C 8.7 °F /  -12.9 °C 30.31in /  1026.3hPa WSW 11.0mph /  17.7km/h 15.0mph /  24.1km/h 63% 0.00in /  0mm
12:34 19.9 °F /  -6.7 °C 8.6 °F /  -13 °C 30.31in /  1026.3hPa NW 5.0mph /  8km/h 14.0mph /  22.5km/h 61% 0.00in /  0mm
12:39 20.8 °F /  -6.2 °C 8.3 °F /  -13.2 °C 30.31in /  1026.3hPa NNW 8.0mph /  12.9km/h 17.0mph /  27.4km/h 58% 0.00in /  0mm
12:44 20.5 °F /  -6.4 °C 7.7 °F /  -13.5 °C 30.30in /  1026hPa WNW 7.0mph /  11.3km/h 17.0mph /  27.4km/h 57% 0.00in /  0mm
12:49 20.2 °F /  -6.6 °C 7.4 °F /  -13.7 °C 30.30in /  1026hPa NW 6.0mph /  9.7km/h 14.0mph /  22.5km/h 57% 0.00in /  0mm
12:54 19.8 °F /  -6.8 °C 7.4 °F /  -13.7 °C 30.31in /  1026.3hPa NW 7.0mph /  11.3km/h 14.0mph /  22.5km/h 58% 0.00in /  0mm
12:59 19.9 °F /  -6.7 °C 7.5 °F /  -13.6 °C 30.31in /  1026.3hPa NW 8.0mph /  12.9km/h 13.0mph /  20.9km/h 58% 0.00in /  0mm
13:04 19.7 °F /  -6.8 °C 7.3 °F /  -13.7 °C 30.30in /  1026hPa NW 10.0mph /  16.1km/h 12.0mph /  19.3km/h 58% 0.00in /  0mm
13:09 20.0 °F /  -6.7 °C 8.0 °F /  -13.3 °C 30.30in /  1026hPa WNW 9.0mph /  14.5km/h 12.0mph /  19.3km/h 59% 0.00in /  0mm
13:14 19.8 °F /  -6.8 °C 7.8 °F /  -13.4 °C 30.30in /  1026hPa WNW 5.0mph /  8km/h 12.0mph /  19.3km/h 59% 0.00in /  0mm
13:19 19.6 °F /  -6.9 °C 8.0 °F /  -13.3 °C 30.30in /  1026hPa WNW 6.0mph /  9.7km/h 12.0mph /  19.3km/h 60% 0.00in /  0mm
13:24 19.7 °F /  -6.8 °C 7.7 °F /  -13.5 °C 30.30in /  1026hPa WNW 6.0mph /  9.7km/h 12.0mph /  19.3km/h 59% 0.00in /  0mm
13:29 20.0 °F /  -6.7 °C 8.7 °F /  -12.9 °C 30.30in /  1026hPa NW 6.0mph /  9.7km/h 12.0mph /  19.3km/h 61% 0.00in /  0mm
13:34 20.4 °F /  -6.4 °C 8.3 °F /  -13.2 °C 30.30in /  1026hPa WNW 6.0mph /  9.7km/h 13.0mph /  20.9km/h 59% 0.00in /  0mm
13:39 19.9 °F /  -6.7 °C 7.5 °F /  -13.6 °C 30.30in /  1026hPa WNW 8.0mph /  12.9km/h 18.0mph /  29km/h 58% 0.00in /  0mm
13:44 19.7 °F /  -6.8 °C 7.7 °F /  -13.5 °C 30.30in /  1026hPa WNW 5.0mph /  8km/h 20.0mph /  32.2km/h 59% 0.00in /  0mm
13:49 19.9 °F /  -6.7 °C 7.9 °F /  -13.4 °C 30.30in /  1026hPa WNW 8.0mph /  12.9km/h 20.0mph /  32.2km/h 59% 0.00in /  0mm
13:54 19.8 °F /  -6.8 °C 8.9 °F /  -12.8 °C 30.30in /  1026hPa NW 6.0mph /  9.7km/h 11.0mph /  17.7km/h 62% 0.00in /  0mm
13:59 19.9 °F /  -6.7 °C 8.6 °F /  -13 °C 30.30in /  1026hPa West 16.0mph /  25.7km/h 18.0mph /  29km/h 61% 0.00in /  0mm
14:04 19.6 °F /  -6.9 °C 8.0 °F /  -13.3 °C 30.30in /  1026hPa NW 9.0mph /  14.5km/h 18.0mph /  29km/h 60% 0.00in /  0mm
14:09 19.8 °F /  -6.8 °C 8.1 °F /  -13.3 °C 30.30in /  1026hPa SW 10.0mph /  16.1km/h 15.0mph /  24.1km/h 60% 0.00in /  0mm
14:14 19.6 °F /  -6.9 °C 8.3 °F /  -13.2 °C 30.30in /  1026hPa West 7.0mph /  11.3km/h 18.0mph /  29km/h 61% 0.00in /  0mm
14:19 19.5 °F /  -6.9 °C 8.2 °F /  -13.2 °C 30.30in /  1026hPa WNW 9.0mph /  14.5km/h 14.0mph /  22.5km/h 61% 0.00in /  0mm
14:24 19.8 °F /  -6.8 °C 7.8 °F /  -13.4 °C 30.30in /  1026hPa West 7.0mph /  11.3km/h 16.0mph /  25.7km/h 59% 0.00in /  0mm
14:29 20.6 °F /  -6.3 °C 8.5 °F /  -13.1 °C 30.30in /  1026hPa WNW 8.0mph /  12.9km/h 16.0mph /  25.7km/h 59% 0.00in /  0mm
14:34 20.4 °F /  -6.4 °C 8.0 °F /  -13.3 °C 30.30in /  1026hPa WNW 10.0mph /  16.1km/h 16.0mph /  25.7km/h 58% 0.00in /  0mm
14:39 20.7 °F /  -6.3 °C 8.6 °F /  -13 °C 30.30in /  1026hPa WNW 9.0mph /  14.5km/h 16.0mph /  25.7km/h 59% 0.00in /  0mm
14:44 20.5 °F /  -6.4 °C 8.0 °F /  -13.3 °C 30.31in /  1026.3hPa WNW 9.0mph /  14.5km/h 20.0mph /  32.2km/h 58% 0.00in /  0mm
14:49 20.4 °F /  -6.4 °C 7.6 °F /  -13.6 °C 30.31in /  1026.3hPa West 8.0mph /  12.9km/h 20.0mph /  32.2km/h 57% 0.00in /  0mm
14:54 20.5 °F /  -6.4 °C 8.4 °F /  -13.1 °C 30.31in /  1026.3hPa WNW 7.0mph /  11.3km/h 21.0mph /  33.8km/h 59% 0.00in /  0mm
14:59 20.5 °F /  -6.4 °C 9.2 °F /  -12.7 °C 30.31in /  1026.3hPa WNW 6.0mph /  9.7km/h 16.0mph /  25.7km/h 61% 0.00in /  0mm
15:04 19.9 °F /  -6.7 °C 9.0 °F /  -12.8 °C 30.31in /  1026.3hPa SW 7.0mph /  11.3km/h 19.0mph /  30.6km/h 62% 0.00in /  0mm
15:09 19.9 °F /  -6.7 °C 8.6 °F /  -13 °C 30.31in /  1026.3hPa WNW 6.0mph /  9.7km/h 16.0mph /  25.7km/h 61% 0.00in /  0mm
15:14 19.7 °F /  -6.8 °C 9.5 °F /  -12.5 °C 30.31in /  1026.3hPa WNW 8.0mph /  12.9km/h 16.0mph /  25.7km/h 64% 0.00in /  0mm
15:19 19.7 °F /  -6.8 °C 9.8 °F /  -12.3 °C 30.31in /  1026.3hPa West 6.0mph /  9.7km/h 14.0mph /  22.5km/h 65% 0.00in /  0mm
15:24 20.2 °F /  -6.6 °C 9.6 °F /  -12.4 °C 30.31in /  1026.3hPa West 4.0mph /  6.4km/h 18.0mph /  29km/h 63% 0.00in /  0mm
15:29 20.4 °F /  -6.4 °C 9.8 °F /  -12.3 °C 30.31in /  1026.3hPa West 8.0mph /  12.9km/h 18.0mph /  29km/h 63% 0.00in /  0mm
15:34 20.6 °F /  -6.3 °C 10.7 °F /  -11.8 °C 30.31in /  1026.3hPa West 8.0mph /  12.9km/h 18.0mph /  29km/h 65% 0.00in /  0mm
15:39 20.0 °F /  -6.7 °C 9.4 °F /  -12.6 °C 30.32in /  1026.6hPa West 9.0mph /  14.5km/h 18.0mph /  29km/h 63% 0.00in /  0mm
15:44 20.0 °F /  -6.7 °C 9.8 °F /  -12.3 °C 30.31in /  1026.3hPa West 9.0mph /  14.5km/h 18.0mph /  29km/h 64% 0.00in /  0mm
15:49 20.3 °F /  -6.5 °C 9.3 °F /  -12.6 °C 30.31in /  1026.3hPa WNW 9.0mph /  14.5km/h 17.0mph /  27.4km/h 62% 0.00in /  0mm
15:54 20.4 °F /  -6.4 °C 9.1 °F /  -12.7 °C 30.31in /  1026.3hPa WNW 9.0mph /  14.5km/h 18.0mph /  29km/h 61% 0.00in /  0mm
15:59 20.5 °F /  -6.4 °C 8.8 °F /  -12.9 °C 30.31in /  1026.3hPa WNW 8.0mph /  12.9km/h 22.0mph /  35.4km/h 60% 0.00in /  0mm
16:04 20.3 °F /  -6.5 °C 8.2 °F /  -13.2 °C 30.31in /  1026.3hPa West 9.0mph /  14.5km/h 19.0mph /  30.6km/h 59% 0.00in /  0mm
16:09 20.4 °F /  -6.4 °C 9.1 °F /  -12.7 °C 30.31in /  1026.3hPa West 7.0mph /  11.3km/h 16.0mph /  25.7km/h 61% 0.00in /  0mm
16:14 20.4 °F /  -6.4 °C 9.1 °F /  -12.7 °C 30.31in /  1026.3hPa NW 5.0mph /  8km/h 17.0mph /  27.4km/h 61% 0.00in /  0mm
16:19 20.2 °F /  -6.6 °C 9.2 °F /  -12.7 °C 30.32in /  1026.6hPa NW 11.0mph /  17.7km/h 15.0mph /  24.1km/h 62% 0.00in /  0mm
16:24 20.3 °F /  -6.5 °C 9.7 °F /  -12.4 °C 30.32in /  1026.6hPa WNW 4.0mph /  6.4km/h 13.0mph /  20.9km/h 63% 0.00in /  0mm
16:29 20.2 °F /  -6.6 °C 9.6 °F /  -12.4 °C 30.32in /  1026.6hPa NW 8.0mph /  12.9km/h 15.0mph /  24.1km/h 63% 0.00in /  0mm
16:34 20.0 °F /  -6.7 °C 10.1 °F /  -12.2 °C 30.31in /  1026.3hPa WNW 7.0mph /  11.3km/h 16.0mph /  25.7km/h 65% 0.00in /  0mm
16:39 20.1 °F /  -6.6 °C 10.6 °F /  -11.9 °C 30.32in /  1026.6hPa NW 6.0mph /  9.7km/h 16.0mph /  25.7km/h 66% 0.00in /  0mm
16:44 19.9 °F /  -6.7 °C 10.4 °F /  -12 °C 30.32in /  1026.6hPa NW 6.0mph /  9.7km/h 14.0mph /  22.5km/h 66% 0.00in /  0mm
16:49 19.6 °F /  -6.9 °C 11.1 °F /  -11.6 °C 30.32in /  1026.6hPa NW 6.0mph /  9.7km/h 14.0mph /  22.5km/h 69% 0.00in /  0mm
16:54 19.5 °F /  -6.9 °C 11.9 °F /  -11.2 °C 30.32in /  1026.6hPa NW 5.0mph /  8km/h 13.0mph /  20.9km/h 72% 0.00in /  0mm
16:59 19.4 °F /  -7 °C 11.5 °F /  -11.4 °C 30.32in /  1026.6hPa WNW 4.0mph /  6.4km/h 15.0mph /  24.1km/h 71% 0.00in /  0mm
17:04 19.4 °F /  -7 °C 11.8 °F /  -11.2 °C 30.33in /  1027hPa NW 7.0mph /  11.3km/h 15.0mph /  24.1km/h 72% 0.00in /  0mm
17:09 19.2 °F /  -7.1 °C 11.6 °F /  -11.3 °C 30.33in /  1027hPa NW 7.0mph /  11.3km/h 18.0mph /  29km/h 72% 0.00in /  0mm
17:14 18.8 °F /  -7.3 °C 12.5 °F /  -10.8 °C 30.33in /  1027hPa NW 5.0mph /  8km/h 11.0mph /  17.7km/h 76% 0.00in /  0mm
17:19 18.5 °F /  -7.5 °C 12.8 °F /  -10.7 °C 30.33in /  1027hPa WNW 5.0mph /  8km/h 11.0mph /  17.7km/h 78% 0.00in /  0mm
17:24 18.5 °F /  -7.5 °C 12.8 °F /  -10.7 °C 30.33in /  1027hPa West 5.0mph /  8km/h 13.0mph /  20.9km/h 78% 0.00in /  0mm
17:29 18.8 °F /  -7.3 °C 13.1 °F /  -10.5 °C 30.33in /  1027hPa NW 6.0mph /  9.7km/h 12.0mph /  19.3km/h 78% 0.00in /  0mm
17:34 18.9 °F /  -7.3 °C 12.6 °F /  -10.8 °C 30.33in /  1027hPa NW 6.0mph /  9.7km/h 14.0mph /  22.5km/h 76% 0.00in /  0mm
17:39 18.9 °F /  -7.3 °C 12.3 °F /  -10.9 °C 30.33in /  1027hPa West 7.0mph /  11.3km/h 14.0mph /  22.5km/h 75% 0.00in /  0mm
17:44 18.8 °F /  -7.3 °C 12.5 °F /  -10.8 °C 30.33in /  1027hPa West 7.0mph /  11.3km/h 13.0mph /  20.9km/h 76% 0.00in /  0mm
17:49 18.5 °F /  -7.5 °C 12.5 °F /  -10.8 °C 30.33in /  1027hPa WNW 6.0mph /  9.7km/h 12.0mph /  19.3km/h 77% 0.00in /  0mm
17:54 18.4 °F /  -7.6 °C 12.4 °F /  -10.9 °C 30.33in /  1027hPa WNW 6.0mph /  9.7km/h 12.0mph /  19.3km/h 77% 0.00in /  0mm
17:59 18.6 °F /  -7.4 °C 12.3 °F /  -10.9 °C 30.33in /  1027hPa WNW 2.0mph /  3.2km/h 10.0mph /  16.1km/h 76% 0.00in /  0mm
18:04 18.9 °F /  -7.3 °C 12.3 °F /  -10.9 °C 30.33in /  1027hPa WNW 4.0mph /  6.4km/h 11.0mph /  17.7km/h 75% 0.00in /  0mm
18:09 19.2 °F /  -7.1 °C 11.6 °F /  -11.3 °C 30.33in /  1027hPa WNW 5.0mph /  8km/h 11.0mph /  17.7km/h 72% 0.00in /  0mm
18:14 19.2 °F /  -7.1 °C 10.7 °F /  -11.8 °C 30.33in /  1027hPa WNW 7.0mph /  11.3km/h 12.0mph /  19.3km/h 69% 0.00in /  0mm
18:19 19.0 °F /  -7.2 °C 10.2 °F /  -12.1 °C 30.33in /  1027hPa WNW 6.0mph /  9.7km/h 12.0mph /  19.3km/h 68% 0.00in /  0mm
18:24 18.8 °F /  -7.3 °C 10.6 °F /  -11.9 °C 30.33in /  1027hPa NNW 4.0mph /  6.4km/h 16.0mph /  25.7km/h 70% 0.00in /  0mm
18:29 18.5 °F /  -7.5 °C 11.0 °F /  -11.7 °C 30.33in /  1027hPa NNW 10.0mph /  16.1km/h 14.0mph /  22.5km/h 72% 0.00in /  0mm
18:34 18.6 °F /  -7.4 °C 11.4 °F /  -11.4 °C 30.34in /  1027.3hPa NNW 6.0mph /  9.7km/h 12.0mph /  19.3km/h 73% 0.00in /  0mm
18:39 18.6 °F /  -7.4 °C 11.7 °F /  -11.3 °C 30.34in /  1027.3hPa West 5.0mph /  8km/h 13.0mph /  20.9km/h 74% 0.00in /  0mm
18:44 18.5 °F /  -7.5 °C 11.3 °F /  -11.5 °C 30.34in /  1027.3hPa NW 6.0mph /  9.7km/h 13.0mph /  20.9km/h 73% 0.00in /  0mm
18:49 18.2 °F /  -7.7 °C 11.0 °F /  -11.7 °C 30.34in /  1027.3hPa NW 6.0mph /  9.7km/h 13.0mph /  20.9km/h 73% 0.00in /  0mm
18:54 18.0 °F /  -7.8 °C 11.4 °F /  -11.4 °C 30.34in /  1027.3hPa NW 6.0mph /  9.7km/h 13.0mph /  20.9km/h 75% 0.00in /  0mm
18:59 17.8 °F /  -7.9 °C 11.8 °F /  -11.2 °C 30.35in /  1027.7hPa NW 5.0mph /  8km/h 16.0mph /  25.7km/h 77% 0.00in /  0mm
19:04 17.6 °F /  -8 °C 12.2 °F /  -11 °C 30.35in /  1027.7hPa NW 7.0mph /  11.3km/h 18.0mph /  29km/h 79% 0.00in /  0mm
19:09 17.2 °F /  -8.2 °C 12.4 °F /  -10.9 °C 30.36in /  1028hPa NW 7.0mph /  11.3km/h 18.0mph /  29km/h 81% 0.00in /  0mm
19:14 17.1 °F /  -8.3 °C 12.8 °F /  -10.7 °C 30.36in /  1028hPa WNW 9.0mph /  14.5km/h 11.0mph /  17.7km/h 83% 0.00in /  0mm
19:19 17.1 °F /  -8.3 °C 12.8 °F /  -10.7 °C 30.36in /  1028hPa WNW 3.0mph /  4.8km/h 10.0mph /  16.1km/h 83% 0.00in /  0mm
19:24 17.1 °F /  -8.3 °C 12.8 °F /  -10.7 °C 30.36in /  1028hPa West 8.0mph /  12.9km/h 10.0mph /  16.1km/h 83% 0.00in /  0mm
19:29 17.0 °F /  -8.3 °C 12.7 °F /  -10.7 °C 30.36in /  1028hPa West 8.0mph /  12.9km/h 15.0mph /  24.1km/h 83% 0.00in /  0mm
19:34 17.1 °F /  -8.3 °C 12.8 °F /  -10.7 °C 30.36in /  1028hPa West 8.0mph /  12.9km/h 14.0mph /  22.5km/h 83% 0.00in /  0mm
19:39 17.2 °F /  -8.2 °C 12.6 °F /  -10.8 °C 30.36in /  1028hPa WNW 6.0mph /  9.7km/h 14.0mph /  22.5km/h 82% 0.00in /  0mm
19:44 17.2 °F /  -8.2 °C 12.6 °F /  -10.8 °C 30.36in /  1028hPa West 7.0mph /  11.3km/h 14.0mph /  22.5km/h 82% 0.00in /  0mm
19:54 17.0 °F /  -8.3 °C 12.5 °F /  -10.8 °C 30.37in /  1028.3hPa West 7.0mph /  11.3km/h 16.0mph /  25.7km/h 82% 0.00in /  0mm
19:59 16.9 °F /  -8.4 °C 12.6 °F /  -10.8 °C 30.36in /  1028hPa WNW 7.0mph /  11.3km/h 13.0mph /  20.9km/h 83% 0.00in /  0mm
20:04 16.8 °F /  -8.4 °C 12.5 °F /  -10.8 °C 30.36in /  1028hPa WNW 7.0mph /  11.3km/h 12.0mph /  19.3km/h 83% 0.00in /  0mm
20:09 16.7 °F /  -8.5 °C 12.4 °F /  -10.9 °C 30.36in /  1028hPa West 7.0mph /  11.3km/h 14.0mph /  22.5km/h 83% 0.00in /  0mm
20:14 16.7 °F /  -8.5 °C 12.4 °F /  -10.9 °C 30.36in /  1028hPa WNW 10.0mph /  16.1km/h 14.0mph /  22.5km/h 83% 0.00in /  0mm
20:19 16.6 °F /  -8.6 °C 12.3 °F /  -10.9 °C 30.36in /  1028hPa WNW 7.0mph /  11.3km/h 14.0mph /  22.5km/h 83% 0.00in /  0mm
20:24 16.6 °F /  -8.6 °C 12.3 °F /  -10.9 °C 30.36in /  1028hPa WNW 7.0mph /  11.3km/h 14.0mph /  22.5km/h 83% 0.00in /  0mm
20:29 16.7 °F /  -8.5 °C 12.4 °F /  -10.9 °C 30.36in /  1028hPa West 4.0mph /  6.4km/h 13.0mph /  20.9km/h 83% 0.00in /  0mm
20:34 16.8 °F /  -8.4 °C 12.5 °F /  -10.8 °C 30.36in /  1028hPa WNW 5.0mph /  8km/h 12.0mph /  19.3km/h 83% 0.00in /  0mm
20:39 16.9 °F /  -8.4 °C 12.6 °F /  -10.8 °C 30.37in /  1028.3hPa West 7.0mph /  11.3km/h 12.0mph /  19.3km/h 83% 0.00in /  0mm
20:44 16.9 °F /  -8.4 °C 12.6 °F /  -10.8 °C 30.37in /  1028.3hPa WNW 3.0mph /  4.8km/h 11.0mph /  17.7km/h 83% 0.00in /  0mm
20:49 16.9 °F /  -8.4 °C 12.9 °F /  -10.6 °C 30.37in /  1028.3hPa West 3.0mph /  4.8km/h 9.0mph /  14.5km/h 84% 0.00in /  0mm
20:54 17.0 °F /  -8.3 °C 13.0 °F /  -10.6 °C 30.37in /  1028.3hPa WNW 5.0mph /  8km/h 9.0mph /  14.5km/h 84% 0.00in /  0mm
20:59 16.8 °F /  -8.4 °C 12.8 °F /  -10.7 °C 30.37in /  1028.3hPa WNW 5.0mph /  8km/h 9.0mph /  14.5km/h 84% 0.00in /  0mm
21:04 16.7 °F /  -8.5 °C 12.7 °F /  -10.7 °C 30.37in /  1028.3hPa West 5.0mph /  8km/h 9.0mph /  14.5km/h 84% 0.00in /  0mm
21:09 16.7 °F /  -8.5 °C 12.7 °F /  -10.7 °C 30.37in /  1028.3hPa West 4.0mph /  6.4km/h 9.0mph /  14.5km/h 84% 0.00in /  0mm
21:14 16.8 °F /  -8.4 °C 12.8 °F /  -10.7 °C 30.37in /  1028.3hPa WNW 4.0mph /  6.4km/h 7.0mph /  11.3km/h 84% 0.00in /  0mm
21:19 16.9 °F /  -8.4 °C 12.9 °F /  -10.6 °C 30.38in /  1028.7hPa West 3.0mph /  4.8km/h 8.0mph /  12.9km/h 84% 0.00in /  0mm
21:24 17.0 °F /  -8.3 °C 12.7 °F /  -10.7 °C 30.38in /  1028.7hPa West 4.0mph /  6.4km/h 8.0mph /  12.9km/h 83% 0.00in /  0mm
21:29 17.0 °F /  -8.3 °C 12.7 °F /  -10.7 °C 30.38in /  1028.7hPa WSW 4.0mph /  6.4km/h 7.0mph /  11.3km/h 83% 0.00in /  0mm
21:34 17.2 °F /  -8.2 °C 12.9 °F /  -10.6 °C 30.38in /  1028.7hPa WNW 5.0mph /  8km/h 6.0mph /  9.7km/h 83% 0.00in /  0mm
21:39 17.3 °F /  -8.2 °C 13.0 °F /  -10.6 °C 30.38in /  1028.7hPa West 2.0mph /  3.2km/h 6.0mph /  9.7km/h 83% 0.00in /  0mm
21:44 17.3 °F /  -8.2 °C 13.3 °F /  -10.4 °C 30.38in /  1028.7hPa NW 4.0mph /  6.4km/h 7.0mph /  11.3km/h 84% 0.00in /  0mm
21:49 17.4 °F /  -8.1 °C 13.4 °F /  -10.3 °C 30.38in /  1028.7hPa WNW 4.0mph /  6.4km/h 7.0mph /  11.3km/h 84% 0.00in /  0mm
21:54 17.4 °F /  -8.1 °C 13.4 °F /  -10.3 °C 30.38in /  1028.7hPa West 5.0mph /  8km/h 8.0mph /  12.9km/h 84% 0.00in /  0mm
21:59 17.4 °F /  -8.1 °C 13.4 °F /  -10.3 °C 30.39in /  1029hPa WNW 4.0mph /  6.4km/h 8.0mph /  12.9km/h 84% 0.00in /  0mm
22:04 17.4 °F /  -8.1 °C 13.4 °F /  -10.3 °C 30.39in /  1029hPa WNW 3.0mph /  4.8km/h 7.0mph /  11.3km/h 84% 0.00in /  0mm
22:09 17.4 °F /  -8.1 °C 13.4 °F /  -10.3 °C 30.39in /  1029hPa WNW 3.0mph /  4.8km/h 6.0mph /  9.7km/h 84% 0.00in /  0mm
22:14 17.4 °F /  -8.1 °C 13.4 °F /  -10.3 °C 30.39in /  1029hPa WNW 3.0mph /  4.8km/h 6.0mph /  9.7km/h 84% 0.00in /  0mm
22:19 17.4 °F /  -8.1 °C 13.4 °F /  -10.3 °C 30.38in /  1028.7hPa WNW 3.0mph /  4.8km/h 6.0mph /  9.7km/h 84% 0.00in /  0mm
22:24 17.4 °F /  -8.1 °C 13.4 °F /  -10.3 °C 30.38in /  1028.7hPa WNW 3.0mph /  4.8km/h 6.0mph /  9.7km/h 84% 0.00in /  0mm
22:29 17.5 °F /  -8.1 °C 13.5 °F /  -10.3 °C 30.39in /  1029hPa NW 5.0mph /  8km/h 6.0mph /  9.7km/h 84% 0.00in /  0mm
22:34 17.5 °F /  -8.1 °C 13.5 °F /  -10.3 °C 30.38in /  1028.7hPa NW 1.0mph /  1.6km/h 5.0mph /  8km/h 84% 0.00in /  0mm
22:39 17.6 °F /  -8 °C 13.6 °F /  -10.2 °C 30.39in /  1029hPa WNW 5.0mph /  8km/h 6.0mph /  9.7km/h 84% 0.00in /  0mm
22:44 17.7 °F /  -7.9 °C 13.4 °F /  -10.3 °C 30.39in /  1029hPa WNW 3.0mph /  4.8km/h 6.0mph /  9.7km/h 83% 0.00in /  0mm
22:49 17.7 °F /  -7.9 °C 13.4 °F /  -10.3 °C 30.39in /  1029hPa West 2.0mph /  3.2km/h 6.0mph /  9.7km/h 83% 0.00in /  0mm
22:54 17.7 °F /  -7.9 °C 13.7 °F /  -10.2 °C 30.39in /  1029hPa WNW 2.0mph /  3.2km/h 5.0mph /  8km/h 84% 0.00in /  0mm
22:59 17.7 °F /  -7.9 °C 13.7 °F /  -10.2 °C 30.39in /  1029hPa West 1.0mph /  1.6km/h 4.0mph /  6.4km/h 84% 0.00in /  0mm
23:04 17.7 °F /  -7.9 °C 13.7 °F /  -10.2 °C 30.38in /  1028.7hPa WNW 2.0mph /  3.2km/h 5.0mph /  8km/h 84% 0.00in /  0mm
23:09 17.7 °F /  -7.9 °C 13.7 °F /  -10.2 °C 30.38in /  1028.7hPa WNW 2.0mph /  3.2km/h 5.0mph /  8km/h 84% 0.00in /  0mm
23:14 17.7 °F /  -7.9 °C 13.7 °F /  -10.2 °C 30.38in /  1028.7hPa WNW 2.0mph /  3.2km/h 4.0mph /  6.4km/h 84% 0.00in /  0mm
23:19 17.8 °F /  -7.9 °C 13.8 °F /  -10.1 °C 30.38in /  1028.7hPa WNW 2.0mph /  3.2km/h 4.0mph /  6.4km/h 84% 0.00in /  0mm
23:24 17.8 °F /  -7.9 °C 14.1 °F /  -9.9 °C 30.38in /  1028.7hPa NW 2.0mph /  3.2km/h 4.0mph /  6.4km/h 85% 0.00in /  0mm
23:29 17.9 °F /  -7.8 °C 14.2 °F /  -9.9 °C 30.38in /  1028.7hPa NW 2.0mph /  3.2km/h 4.0mph /  6.4km/h 85% 0.00in /  0mm
23:34 17.9 °F /  -7.8 °C 14.2 °F /  -9.9 °C 30.38in /  1028.7hPa Calm   3.0mph /  4.8km/h 85% 0.00in /  0mm
23:39 17.9 °F /  -7.8 °C 14.2 °F /  -9.9 °C 30.38in /  1028.7hPa WNW 2.0mph /  3.2km/h 4.0mph /  6.4km/h 85% 0.00in /  0mm
23:44 17.9 °F /  -7.8 °C 14.2 °F /  -9.9 °C 30.38in /  1028.7hPa WNW 1.0mph /  1.6km/h 3.0mph /  4.8km/h 85% 0.00in /  0mm
23:49 17.9 °F /  -7.8 °C 14.4 °F /  -9.8 °C 30.38in /  1028.7hPa Calm   4.0mph /  6.4km/h 86% 0.00in /  0mm
23:54 17.9 °F /  -7.8 °C 14.4 °F /  -9.8 °C 30.38in /  1028.7hPa West 1.0mph /  1.6km/h 4.0mph /  6.4km/h 86% 0.00in /  0mm
23:59 17.9 °F /  -7.8 °C 14.4 °F /  -9.8 °C 30.37in /  1028.3hPa West 1.0mph /  1.6km/h 2.0mph /  3.2km/h 86% 0.00in /  0mm
Buffalo, New York, USA
Compliments of Weather Underground - 2.5 mb